sensor_id;sensor_type;location;lat;lon;timestamp;temperature;humidity
19799;DHT22;10059;59.850;10.454;2023-01-15T00:01:26;1.50;99.90
19799;DHT22;10059;59.850;10.454;2023-01-15T00:03:56;1.50;99.90
19799;DHT22;10059;59.850;10.454;2023-01-15T00:06:25;1.50;99.90
19799;DHT22;10059;59.850;10.454;2023-01-15T00:08:52;1.50;99.90
19799;DHT22;10059;59.850;10.454;2023-01-15T00:11:19;1.60;99.90
19799;DHT22;10059;59.850;10.454;2023-01-15T00:13:47;1.60;99.90
19799;DHT22;10059;59.850;10.454;2023-01-15T00:16:16;1.50;99.90
19799;DHT22;10059;59.850;10.454;2023-01-15T00:18:45;1.50;99.90
19799;DHT22;10059;59.850;10.454;2023-01-15T00:21:16;1.50;99.90
19799;DHT22;10059;59.850;10.454;2023-01-15T00:23:43;1.50;99.90
19799;DHT22;10059;59.850;10.454;2023-01-15T00:26:29;1.40;99.90
19799;DHT22;10059;59.850;10.454;2023-01-15T00:29:14;1.40;99.90
19799;DHT22;10059;59.850;10.454;2023-01-15T00:31:42;1.50;99.90
19799;DHT22;10059;59.850;10.454;2023-01-15T00:34:09;1.40;99.90
19799;DHT22;10059;59.850;10.454;2023-01-15T00:36:37;1.30;99.90
19799;DHT22;10059;59.850;10.454;2023-01-15T00:39:05;1.40;99.90
19799;DHT22;10059;59.850;10.454;2023-01-15T00:41:32;1.40;99.90
19799;DHT22;10059;59.850;10.454;2023-01-15T00:43:59;1.40;99.90
19799;DHT22;10059;59.850;10.454;2023-01-15T00:46:25;1.40;99.90
19799;DHT22;10059;59.850;10.454;2023-01-15T00:48:52;1.40;99.90
19799;DHT22;10059;59.850;10.454;2023-01-15T00:51:19;1.40;99.90
19799;DHT22;10059;59.850;10.454;2023-01-15T00:53:47;1.40;99.90
19799;DHT22;10059;59.850;10.454;2023-01-15T00:56:14;1.40;99.90
19799;DHT22;10059;59.850;10.454;2023-01-15T00:58:41;1.50;99.90
19799;DHT22;10059;59.850;10.454;2023-01-15T01:01:08;1.50;99.90
19799;DHT22;10059;59.850;10.454;2023-01-15T01:03:35;1.50;99.90
19799;DHT22;10059;59.850;10.454;2023-01-15T01:06:02;1.40;99.90
19799;DHT22;10059;59.850;10.454;2023-01-15T01:08:30;1.50;99.90
19799;DHT22;10059;59.850;10.454;2023-01-15T01:11:05;1.60;99.90
19799;DHT22;10059;59.850;10.454;2023-01-15T01:13:33;1.60;99.90
19799;DHT22;10059;59.850;10.454;2023-01-15T01:16:00;1.50;99.90
19799;DHT22;10059;59.850;10.454;2023-01-15T01:18:27;1.50;99.90
19799;DHT22;10059;59.850;10.454;2023-01-15T01:20:54;1.60;99.90
19799;DHT22;10059;59.850;10.454;2023-01-15T01:23:22;1.60;99.90
19799;DHT22;10059;59.850;10.454;2023-01-15T01:25:49;1.60;99.90
19799;DHT22;10059;59.850;10.454;2023-01-15T01:28:17;1.50;99.90
19799;DHT22;10059;59.850;10.454;2023-01-15T01:30:44;1.50;99.90
19799;DHT22;10059;59.850;10.454;2023-01-15T01:33:11;1.50;99.90
19799;DHT22;10059;59.850;10.454;2023-01-15T01:35:37;1.60;99.90
19799;DHT22;10059;59.850;10.454;2023-01-15T01:38:04;1.60;99.90
19799;DHT22;10059;59.850;10.454;2023-01-15T01:40:31;1.60;99.90
19799;DHT22;10059;59.850;10.454;2023-01-15T01:42:58;1.50;99.90
19799;DHT22;10059;59.850;10.454;2023-01-15T01:45:30;1.60;99.90
19799;DHT22;10059;59.850;10.454;2023-01-15T01:48:01;1.50;99.90
19799;DHT22;10059;59.850;10.454;2023-01-15T01:50:30;1.60;99.90
19799;DHT22;10059;59.850;10.454;2023-01-15T01:53:00;1.60;99.90
19799;DHT22;10059;59.850;10.454;2023-01-15T01:55:30;1.60;99.90
19799;DHT22;10059;59.850;10.454;2023-01-15T01:57:59;1.60;99.90
19799;DHT22;10059;59.850;10.454;2023-01-15T02:00:29;1.70;99.90
19799;DHT22;10059;59.850;10.454;2023-01-15T02:02:57;1.60;99.90
19799;DHT22;10059;59.850;10.454;2023-01-15T02:05:28;1.60;99.90
19799;DHT22;10059;59.850;10.454;2023-01-15T02:07:56;1.50;99.90
19799;DHT22;10059;59.850;10.454;2023-01-15T02:10:23;1.40;99.90
19799;DHT22;10059;59.850;10.454;2023-01-15T02:12:55;1.40;99.90
19799;DHT22;10059;59.850;10.454;2023-01-15T02:15:29;1.40;99.90
19799;DHT22;10059;59.850;10.454;2023-01-15T02:18:04;1.50;99.90
19799;DHT22;10059;59.850;10.454;2023-01-15T02:20:37;1.60;99.90
19799;DHT22;10059;59.850;10.454;2023-01-15T02:23:34;1.50;99.90
19799;DHT22;10059;59.850;10.454;2023-01-15T02:29:00;1.60;99.90
19799;DHT22;10059;59.850;10.454;2023-01-15T02:31:32;1.60;99.90
19799;DHT22;10059;59.850;10.454;2023-01-15T02:34:04;1.60;99.90
19799;DHT22;10059;59.850;10.454;2023-01-15T02:36:34;1.60;99.90
19799;DHT22;10059;59.850;10.454;2023-01-15T02:39:06;1.60;99.90
19799;DHT22;10059;59.850;10.454;2023-01-15T02:41:38;1.50;99.90
19799;DHT22;10059;59.850;10.454;2023-01-15T02:44:09;1.40;99.90
19799;DHT22;10059;59.850;10.454;2023-01-15T02:46:38;1.60;99.90
19799;DHT22;10059;59.850;10.454;2023-01-15T02:49:07;1.60;99.90
19799;DHT22;10059;59.850;10.454;2023-01-15T02:51:39;1.60;99.90
19799;DHT22;10059;59.850;10.454;2023-01-15T02:54:11;1.60;99.90
19799;DHT22;10059;59.850;10.454;2023-01-15T02:56:40;1.60;99.90
19799;DHT22;10059;59.850;10.454;2023-01-15T02:59:11;1.60;99.90
19799;DHT22;10059;59.850;10.454;2023-01-15T03:01:43;1.60;99.90
19799;DHT22;10059;59.850;10.454;2023-01-15T03:04:14;1.50;99.90
19799;DHT22;10059;59.850;10.454;2023-01-15T03:06:45;1.50;99.90
19799;DHT22;10059;59.850;10.454;2023-01-15T03:09:15;1.50;99.90
19799;DHT22;10059;59.850;10.454;2023-01-15T03:11:46;1.60;99.90
19799;DHT22;10059;59.850;10.454;2023-01-15T03:14:19;1.60;99.90
19799;DHT22;10059;59.850;10.454;2023-01-15T03:16:49;1.60;99.90
19799;DHT22;10059;59.850;10.454;2023-01-15T03:19:23;1.60;99.90
19799;DHT22;10059;59.850;10.454;2023-01-15T03:21:55;1.60;99.90
19799;DHT22;10059;59.850;10.454;2023-01-15T03:24:31;1.60;99.90
19799;DHT22;10059;59.850;10.454;2023-01-15T03:26:59;1.70;99.90
19799;DHT22;10059;59.850;10.454;2023-01-15T03:29:30;1.60;99.90
19799;DHT22;10059;59.850;10.454;2023-01-15T03:31:58;1.70;99.90
19799;DHT22;10059;59.850;10.454;2023-01-15T03:34:30;1.70;99.90
19799;DHT22;10059;59.850;10.454;2023-01-15T03:36:59;1.70;99.90
19799;DHT22;10059;59.850;10.454;2023-01-15T03:39:25;1.80;99.90
19799;DHT22;10059;59.850;10.454;2023-01-15T03:42:02;1.80;99.90
19799;DHT22;10059;59.850;10.454;2023-01-15T03:44:37;1.80;99.90
19799;DHT22;10059;59.850;10.454;2023-01-15T03:47:16;1.90;99.90
19799;DHT22;10059;59.850;10.454;2023-01-15T03:49:53;1.70;99.90
19799;DHT22;10059;59.850;10.454;2023-01-15T03:52:28;1.70;99.90
19799;DHT22;10059;59.850;10.454;2023-01-15T03:55:04;1.80;99.90
19799;DHT22;10059;59.850;10.454;2023-01-15T03:57:37;1.80;99.90
19799;DHT22;10059;59.850;10.454;2023-01-15T04:00:12;1.80;99.90
19799;DHT22;10059;59.850;10.454;2023-01-15T04:02:39;1.80;99.90
19799;DHT22;10059;59.850;10.454;2023-01-15T04:05:08;1.80;99.90
19799;DHT22;10059;59.850;10.454;2023-01-15T04:07:34;1.90;99.90
19799;DHT22;10059;59.850;10.454;2023-01-15T04:10:01;1.90;99.90
19799;DHT22;10059;59.850;10.454;2023-01-15T04:12:30;1.90;99.90
19799;DHT22;10059;59.850;10.454;2023-01-15T04:14:58;2.00;99.90
19799;DHT22;10059;59.850;10.454;2023-01-15T04:17:26;2.00;99.90
19799;DHT22;10059;59.850;10.454;2023-01-15T04:19:53;1.90;99.90
19799;DHT22;10059;59.850;10.454;2023-01-15T04:22:20;2.10;99.90
19799;DHT22;10059;59.850;10.454;2023-01-15T04:24:47;2.10;99.90
19799;DHT22;10059;59.850;10.454;2023-01-15T04:27:14;2.20;99.90
19799;DHT22;10059;59.850;10.454;2023-01-15T04:29:40;2.10;99.90
19799;DHT22;10059;59.850;10.454;2023-01-15T04:32:07;1.90;99.90
19799;DHT22;10059;59.850;10.454;2023-01-15T04:34:35;1.90;99.90
19799;DHT22;10059;59.850;10.454;2023-01-15T04:37:02;1.80;99.90
19799;DHT22;10059;59.850;10.454;2023-01-15T04:39:29;1.80;99.90
19799;DHT22;10059;59.850;10.454;2023-01-15T04:41:56;1.70;99.90
19799;DHT22;10059;59.850;10.454;2023-01-15T04:44:40;1.70;99.90
19799;DHT22;10059;59.850;10.454;2023-01-15T04:47:07;1.80;99.90
19799;DHT22;10059;59.850;10.454;2023-01-15T04:49:35;1.90;99.90
19799;DHT22;10059;59.850;10.454;2023-01-15T04:52:02;1.90;99.90
19799;DHT22;10059;59.850;10.454;2023-01-15T04:54:29;1.90;99.90
19799;DHT22;10059;59.850;10.454;2023-01-15T04:56:56;2.00;99.90
19799;DHT22;10059;59.850;10.454;2023-01-15T04:59:25;2.00;99.90
19799;DHT22;10059;59.850;10.454;2023-01-15T05:01:53;2.00;99.90
19799;DHT22;10059;59.850;10.454;2023-01-15T05:04:20;2.10;99.90
19799;DHT22;10059;59.850;10.454;2023-01-15T05:06:48;2.10;99.90
19799;DHT22;10059;59.850;10.454;2023-01-15T05:09:16;2.20;99.90
19799;DHT22;10059;59.850;10.454;2023-01-15T05:11:42;2.10;99.90
19799;DHT22;10059;59.850;10.454;2023-01-15T05:14:09;2.10;99.90
19799;DHT22;10059;59.850;10.454;2023-01-15T05:16:36;2.00;99.90
19799;DHT22;10059;59.850;10.454;2023-01-15T05:19:05;2.10;99.90
19799;DHT22;10059;59.850;10.454;2023-01-15T05:21:34;2.00;99.90
19799;DHT22;10059;59.850;10.454;2023-01-15T05:24:04;2.10;99.90
19799;DHT22;10059;59.850;10.454;2023-01-15T05:26:34;2.10;99.90
19799;DHT22;10059;59.850;10.454;2023-01-15T05:29:02;2.10;99.90
19799;DHT22;10059;59.850;10.454;2023-01-15T05:31:29;2.20;99.90
19799;DHT22;10059;59.850;10.454;2023-01-15T05:33:58;2.20;99.90
19799;DHT22;10059;59.850;10.454;2023-01-15T05:36:27;2.10;99.90
19799;DHT22;10059;59.850;10.454;2023-01-15T05:38:54;2.10;99.90
19799;DHT22;10059;59.850;10.454;2023-01-15T05:41:25;2.10;99.90
19799;DHT22;10059;59.850;10.454;2023-01-15T05:44:11;2.10;99.90
19799;DHT22;10059;59.850;10.454;2023-01-15T05:46:39;2.10;99.90
19799;DHT22;10059;59.850;10.454;2023-01-15T05:49:08;2.10;99.90
19799;DHT22;10059;59.850;10.454;2023-01-15T05:51:36;2.10;99.90
19799;DHT22;10059;59.850;10.454;2023-01-15T05:54:03;2.10;99.90
19799;DHT22;10059;59.850;10.454;2023-01-15T05:56:34;2.00;99.90
19799;DHT22;10059;59.850;10.454;2023-01-15T05:59:01;2.00;99.90
19799;DHT22;10059;59.850;10.454;2023-01-15T06:01:27;2.10;99.90
19799;DHT22;10059;59.850;10.454;2023-01-15T06:03:57;2.00;99.90
19799;DHT22;10059;59.850;10.454;2023-01-15T06:06:24;2.00;99.90
19799;DHT22;10059;59.850;10.454;2023-01-15T06:08:51;2.00;99.90
19799;DHT22;10059;59.850;10.454;2023-01-15T06:11:18;2.10;99.90
19799;DHT22;10059;59.850;10.454;2023-01-15T06:13:46;2.00;99.90
19799;DHT22;10059;59.850;10.454;2023-01-15T06:16:13;2.10;99.90
19799;DHT22;10059;59.850;10.454;2023-01-15T06:18:40;2.00;99.90
19799;DHT22;10059;59.850;10.454;2023-01-15T06:21:08;2.00;99.90
19799;DHT22;10059;59.850;10.454;2023-01-15T06:23:36;2.00;99.90
19799;DHT22;10059;59.850;10.454;2023-01-15T06:26:07;2.00;99.90
19799;DHT22;10059;59.850;10.454;2023-01-15T06:28:34;2.00;99.90
19799;DHT22;10059;59.850;10.454;2023-01-15T06:31:05;2.00;99.90
19799;DHT22;10059;59.850;10.454;2023-01-15T06:33:32;2.20;99.90
19799;DHT22;10059;59.850;10.454;2023-01-15T06:36:02;2.20;99.90
19799;DHT22;10059;59.850;10.454;2023-01-15T06:38:29;2.10;99.90
19799;DHT22;10059;59.850;10.454;2023-01-15T06:40:57;2.10;99.90
19799;DHT22;10059;59.850;10.454;2023-01-15T06:43:24;2.20;99.90
19799;DHT22;10059;59.850;10.454;2023-01-15T06:46:10;2.10;99.90
19799;DHT22;10059;59.850;10.454;2023-01-15T06:48:54;2.10;99.90
19799;DHT22;10059;59.850;10.454;2023-01-15T06:51:21;2.00;99.90
19799;DHT22;10059;59.850;10.454;2023-01-15T06:53:48;2.00;99.90
19799;DHT22;10059;59.850;10.454;2023-01-15T06:56:15;2.10;99.90
19799;DHT22;10059;59.850;10.454;2023-01-15T06:58:42;2.10;99.90
19799;DHT22;10059;59.850;10.454;2023-01-15T07:01:11;2.20;99.90
19799;DHT22;10059;59.850;10.454;2023-01-15T07:03:38;2.10;99.90
19799;DHT22;10059;59.850;10.454;2023-01-15T07:06:06;2.10;99.90
19799;DHT22;10059;59.850;10.454;2023-01-15T07:08:33;2.10;99.90
19799;DHT22;10059;59.850;10.454;2023-01-15T07:11:03;2.20;99.90
19799;DHT22;10059;59.850;10.454;2023-01-15T07:13:31;2.20;99.90
19799;DHT22;10059;59.850;10.454;2023-01-15T07:15:59;2.00;99.90
19799;DHT22;10059;59.850;10.454;2023-01-15T07:18:29;2.10;99.90
19799;DHT22;10059;59.850;10.454;2023-01-15T07:20:56;2.00;99.90
19799;DHT22;10059;59.850;10.454;2023-01-15T07:23:23;1.90;99.90
19799;DHT22;10059;59.850;10.454;2023-01-15T07:25:51;1.80;99.90
19799;DHT22;10059;59.850;10.454;2023-01-15T07:28:19;1.80;99.90
19799;DHT22;10059;59.850;10.454;2023-01-15T07:30:45;1.80;99.90
19799;DHT22;10059;59.850;10.454;2023-01-15T07:33:12;1.80;99.90
19799;DHT22;10059;59.850;10.454;2023-01-15T07:35:41;1.80;99.90
19799;DHT22;10059;59.850;10.454;2023-01-15T07:38:08;1.80;99.90
19799;DHT22;10059;59.850;10.454;2023-01-15T07:40:34;1.90;99.90
19799;DHT22;10059;59.850;10.454;2023-01-15T07:43:02;1.80;99.90
19799;DHT22;10059;59.850;10.454;2023-01-15T07:45:46;1.80;99.90
19799;DHT22;10059;59.850;10.454;2023-01-15T07:48:31;1.80;99.90
19799;DHT22;10059;59.850;10.454;2023-01-15T07:51:22;1.90;99.90
19799;DHT22;10059;59.850;10.454;2023-01-15T07:53:49;1.80;99.90
19799;DHT22;10059;59.850;10.454;2023-01-15T07:56:16;1.80;99.90
19799;DHT22;10059;59.850;10.454;2023-01-15T07:58:42;1.90;99.90
19799;DHT22;10059;59.850;10.454;2023-01-15T08:01:13;1.80;99.90
19799;DHT22;10059;59.850;10.454;2023-01-15T08:03:40;1.60;99.90
19799;DHT22;10059;59.850;10.454;2023-01-15T08:06:07;1.60;99.90
19799;DHT22;10059;59.850;10.454;2023-01-15T08:08:35;1.60;99.90
19799;DHT22;10059;59.850;10.454;2023-01-15T08:11:02;1.70;99.90
19799;DHT22;10059;59.850;10.454;2023-01-15T08:13:46;1.50;99.90
19799;DHT22;10059;59.850;10.454;2023-01-15T08:16:34;1.40;99.90
19799;DHT22;10059;59.850;10.454;2023-01-15T08:19:01;1.40;99.90
19799;DHT22;10059;59.850;10.454;2023-01-15T08:21:28;1.40;99.90
19799;DHT22;10059;59.850;10.454;2023-01-15T08:23:56;1.40;99.90
19799;DHT22;10059;59.850;10.454;2023-01-15T08:26:23;1.40;99.90
19799;DHT22;10059;59.850;10.454;2023-01-15T08:28:50;1.40;99.90
19799;DHT22;10059;59.850;10.454;2023-01-15T08:31:17;1.40;99.90
19799;DHT22;10059;59.850;10.454;2023-01-15T08:33:43;1.40;99.90
19799;DHT22;10059;59.850;10.454;2023-01-15T08:36:10;1.60;99.90
19799;DHT22;10059;59.850;10.454;2023-01-15T08:38:37;1.60;99.90
19799;DHT22;10059;59.850;10.454;2023-01-15T08:41:05;1.50;99.90
19799;DHT22;10059;59.850;10.454;2023-01-15T08:43:33;1.50;99.90
19799;DHT22;10059;59.850;10.454;2023-01-15T08:46:02;1.60;99.90
19799;DHT22;10059;59.850;10.454;2023-01-15T08:48:30;1.80;99.90
19799;DHT22;10059;59.850;10.454;2023-01-15T08:50:57;1.80;99.90
19799;DHT22;10059;59.850;10.454;2023-01-15T08:53:24;2.00;99.90
19799;DHT22;10059;59.850;10.454;2023-01-15T08:55:51;2.00;99.90
19799;DHT22;10059;59.850;10.454;2023-01-15T08:58:19;2.10;99.90
19799;DHT22;10059;59.850;10.454;2023-01-15T09:00:46;2.20;99.90
19799;DHT22;10059;59.850;10.454;2023-01-15T09:03:13;2.20;99.90
19799;DHT22;10059;59.850;10.454;2023-01-15T09:05:40;2.20;99.90
19799;DHT22;10059;59.850;10.454;2023-01-15T09:08:07;1.90;99.90
19799;DHT22;10059;59.850;10.454;2023-01-15T09:10:34;1.90;99.90
19799;DHT22;10059;59.850;10.454;2023-01-15T09:13:01;2.00;99.90
19799;DHT22;10059;59.850;10.454;2023-01-15T09:15:31;2.10;99.90
19799;DHT22;10059;59.850;10.454;2023-01-15T09:17:58;2.20;99.90
19799;DHT22;10059;59.850;10.454;2023-01-15T09:20:25;2.10;99.90
19799;DHT22;10059;59.850;10.454;2023-01-15T09:22:52;2.20;99.90
19799;DHT22;10059;59.850;10.454;2023-01-15T09:25:19;2.20;99.90
19799;DHT22;10059;59.850;10.454;2023-01-15T09:27:48;2.10;99.90
19799;DHT22;10059;59.850;10.454;2023-01-15T09:30:17;2.20;99.90
19799;DHT22;10059;59.850;10.454;2023-01-15T09:32:46;2.20;99.90
19799;DHT22;10059;59.850;10.454;2023-01-15T09:35:13;2.20;99.90
19799;DHT22;10059;59.850;10.454;2023-01-15T09:37:40;2.30;99.90
19799;DHT22;10059;59.850;10.454;2023-01-15T09:40:10;2.40;99.90
19799;DHT22;10059;59.850;10.454;2023-01-15T09:42:50;2.50;99.90
19799;DHT22;10059;59.850;10.454;2023-01-15T09:45:23;2.60;99.90
19799;DHT22;10059;59.850;10.454;2023-01-15T09:48:07;2.70;99.90
19799;DHT22;10059;59.850;10.454;2023-01-15T09:50:46;2.80;99.90
19799;DHT22;10059;59.850;10.454;2023-01-15T09:53:31;2.90;99.90
19799;DHT22;10059;59.850;10.454;2023-01-15T09:56:03;2.80;99.90
19799;DHT22;10059;59.850;10.454;2023-01-15T09:58:32;2.70;99.90
19799;DHT22;10059;59.850;10.454;2023-01-15T10:01:00;2.70;99.90
19799;DHT22;10059;59.850;10.454;2023-01-15T10:03:34;2.80;99.90
19799;DHT22;10059;59.850;10.454;2023-01-15T10:06:09;2.80;99.90
19799;DHT22;10059;59.850;10.454;2023-01-15T10:08:43;2.80;99.90
19799;DHT22;10059;59.850;10.454;2023-01-15T10:11:26;2.60;99.90
19799;DHT22;10059;59.850;10.454;2023-01-15T10:14:24;2.70;99.90
19799;DHT22;10059;59.850;10.454;2023-01-15T10:16:56;2.70;99.90
19799;DHT22;10059;59.850;10.454;2023-01-15T10:19:24;2.50;99.90
19799;DHT22;10059;59.850;10.454;2023-01-15T10:21:56;2.50;99.90
19799;DHT22;10059;59.850;10.454;2023-01-15T10:24:30;2.50;99.90
19799;DHT22;10059;59.850;10.454;2023-01-15T10:26:58;2.50;99.90
19799;DHT22;10059;59.850;10.454;2023-01-15T10:29:31;2.50;99.90
19799;DHT22;10059;59.850;10.454;2023-01-15T10:32:03;2.50;99.90
19799;DHT22;10059;59.850;10.454;2023-01-15T10:35:02;2.60;99.90
19799;DHT22;10059;59.850;10.454;2023-01-15T10:37:36;2.60;99.90
19799;DHT22;10059;59.850;10.454;2023-01-15T10:40:32;2.70;99.90
19799;DHT22;10059;59.850;10.454;2023-01-15T10:43:06;2.70;99.90
19799;DHT22;10059;59.850;10.454;2023-01-15T10:45:43;2.80;99.90
19799;DHT22;10059;59.850;10.454;2023-01-15T10:48:18;2.50;99.90
19799;DHT22;10059;59.850;10.454;2023-01-15T10:50:48;2.50;99.90
19799;DHT22;10059;59.850;10.454;2023-01-15T10:53:23;2.50;99.90
19799;DHT22;10059;59.850;10.454;2023-01-15T10:55:56;2.50;99.90
19799;DHT22;10059;59.850;10.454;2023-01-15T10:58:32;2.60;99.90
19799;DHT22;10059;59.850;10.454;2023-01-15T11:01:03;2.50;99.90
19799;DHT22;10059;59.850;10.454;2023-01-15T11:03:35;2.40;99.90
19799;DHT22;10059;59.850;10.454;2023-01-15T11:06:07;2.50;99.90
19799;DHT22;10059;59.850;10.454;2023-01-15T11:08:39;2.60;99.90
19799;DHT22;10059;59.850;10.454;2023-01-15T11:11:20;2.50;99.90
19799;DHT22;10059;59.850;10.454;2023-01-15T11:13:52;2.50;99.90
19799;DHT22;10059;59.850;10.454;2023-01-15T11:16:37;2.60;99.90
19799;DHT22;10059;59.850;10.454;2023-01-15T11:19:26;2.70;99.90
19799;DHT22;10059;59.850;10.454;2023-01-15T11:22:06;2.70;99.90
19799;DHT22;10059;59.850;10.454;2023-01-15T11:24:43;2.50;99.90
19799;DHT22;10059;59.850;10.454;2023-01-15T11:27:14;2.50;99.90
19799;DHT22;10059;59.850;10.454;2023-01-15T11:29:43;2.60;99.90
19799;DHT22;10059;59.850;10.454;2023-01-15T11:32:20;2.50;99.90
19799;DHT22;10059;59.850;10.454;2023-01-15T11:34:53;2.50;99.90
19799;DHT22;10059;59.850;10.454;2023-01-15T11:37:21;2.60;99.90
19799;DHT22;10059;59.850;10.454;2023-01-15T11:39:52;2.60;99.90
19799;DHT22;10059;59.850;10.454;2023-01-15T11:42:19;2.60;99.90
19799;DHT22;10059;59.850;10.454;2023-01-15T11:45:12;2.60;99.90
19799;DHT22;10059;59.850;10.454;2023-01-15T11:47:56;2.70;99.90
19799;DHT22;10059;59.850;10.454;2023-01-15T11:50:48;2.70;99.90
19799;DHT22;10059;59.850;10.454;2023-01-15T11:53:19;2.80;99.90
19799;DHT22;10059;59.850;10.454;2023-01-15T11:55:55;2.80;99.90
19799;DHT22;10059;59.850;10.454;2023-01-15T11:58:26;2.60;99.90
19799;DHT22;10059;59.850;10.454;2023-01-15T12:00:53;2.70;99.90
19799;DHT22;10059;59.850;10.454;2023-01-15T12:03:25;2.80;99.90
19799;DHT22;10059;59.850;10.454;2023-01-15T12:05:55;3.00;99.90
19799;DHT22;10059;59.850;10.454;2023-01-15T12:08:34;2.90;99.90
19799;DHT22;10059;59.850;10.454;2023-01-15T12:11:11;2.90;99.90
19799;DHT22;10059;59.850;10.454;2023-01-15T12:13:47;2.80;99.90
19799;DHT22;10059;59.850;10.454;2023-01-15T12:16:24;2.80;99.90
19799;DHT22;10059;59.850;10.454;2023-01-15T12:18:57;2.70;99.90
19799;DHT22;10059;59.850;10.454;2023-01-15T12:21:51;2.70;99.90
19799;DHT22;10059;59.850;10.454;2023-01-15T12:27:40;2.90;99.90
19799;DHT22;10059;59.850;10.454;2023-01-15T12:30:19;3.00;99.90
19799;DHT22;10059;59.850;10.454;2023-01-15T12:32:51;2.90;99.90
19799;DHT22;10059;59.850;10.454;2023-01-15T12:35:34;2.80;99.90
19799;DHT22;10059;59.850;10.454;2023-01-15T12:38:10;2.80;99.90
19799;DHT22;10059;59.850;10.454;2023-01-15T12:40:46;2.70;99.90
19799;DHT22;10059;59.850;10.454;2023-01-15T12:43:18;2.70;99.90
19799;DHT22;10059;59.850;10.454;2023-01-15T12:46:09;2.80;99.90
19799;DHT22;10059;59.850;10.454;2023-01-15T12:48:42;2.80;99.90
19799;DHT22;10059;59.850;10.454;2023-01-15T12:51:14;2.80;99.90
19799;DHT22;10059;59.850;10.454;2023-01-15T12:53:46;2.80;99.90
19799;DHT22;10059;59.850;10.454;2023-01-15T12:56:20;2.80;99.90
19799;DHT22;10059;59.850;10.454;2023-01-15T12:58:53;2.80;99.90
19799;DHT22;10059;59.850;10.454;2023-01-15T13:01:25;2.90;99.90
19799;DHT22;10059;59.850;10.454;2023-01-15T13:04:03;2.90;99.90
19799;DHT22;10059;59.850;10.454;2023-01-15T13:06:34;2.80;99.90
19799;DHT22;10059;59.850;10.454;2023-01-15T13:09:04;2.60;99.90
19799;DHT22;10059;59.850;10.454;2023-01-15T13:11:32;2.60;99.90
19799;DHT22;10059;59.850;10.454;2023-01-15T13:13:59;2.50;99.90
19799;DHT22;10059;59.850;10.454;2023-01-15T13:16:37;2.60;99.90
19799;DHT22;10059;59.850;10.454;2023-01-15T13:19:30;2.60;99.90
19799;DHT22;10059;59.850;10.454;2023-01-15T13:22:02;2.60;99.90
19799;DHT22;10059;59.850;10.454;2023-01-15T13:24:57;2.60;99.90
19799;DHT22;10059;59.850;10.454;2023-01-15T13:27:45;2.60;99.90
19799;DHT22;10059;59.850;10.454;2023-01-15T13:30:31;2.50;99.90
19799;DHT22;10059;59.850;10.454;2023-01-15T13:33:09;2.70;99.90
19799;DHT22;10059;59.850;10.454;2023-01-15T13:35:42;2.50;99.90
19799;DHT22;10059;59.850;10.454;2023-01-15T13:38:14;2.50;99.90
19799;DHT22;10059;59.850;10.454;2023-01-15T13:40:44;2.50;99.90
19799;DHT22;10059;59.850;10.454;2023-01-15T13:43:26;2.60;99.90
19799;DHT22;10059;59.850;10.454;2023-01-15T13:45:56;2.50;99.90
19799;DHT22;10059;59.850;10.454;2023-01-15T13:48:28;2.50;99.90
19799;DHT22;10059;59.850;10.454;2023-01-15T13:50:57;2.50;99.90
19799;DHT22;10059;59.850;10.454;2023-01-15T13:53:26;2.60;99.90
19799;DHT22;10059;59.850;10.454;2023-01-15T13:55:56;2.60;99.90
19799;DHT22;10059;59.850;10.454;2023-01-15T13:58:29;2.50;99.90
19799;DHT22;10059;59.850;10.454;2023-01-15T14:01:06;2.50;99.90
19799;DHT22;10059;59.850;10.454;2023-01-15T14:03:33;2.50;99.90
19799;DHT22;10059;59.850;10.454;2023-01-15T14:06:03;2.30;99.90
19799;DHT22;10059;59.850;10.454;2023-01-15T14:08:37;2.30;99.90
19799;DHT22;10059;59.850;10.454;2023-01-15T14:11:04;2.20;99.90
19799;DHT22;10059;59.850;10.454;2023-01-15T14:13:58;2.20;99.90
19799;DHT22;10059;59.850;10.454;2023-01-15T14:16:40;2.30;99.90
19799;DHT22;10059;59.850;10.454;2023-01-15T14:19:26;2.40;99.90
19799;DHT22;10059;59.850;10.454;2023-01-15T14:22:06;2.40;99.90
19799;DHT22;10059;59.850;10.454;2023-01-15T14:24:54;2.40;99.90
19799;DHT22;10059;59.850;10.454;2023-01-15T14:27:39;2.40;99.90
19799;DHT22;10059;59.850;10.454;2023-01-15T14:30:23;2.30;99.90
19799;DHT22;10059;59.850;10.454;2023-01-15T14:33:05;2.40;99.90
19799;DHT22;10059;59.850;10.454;2023-01-15T14:35:35;2.40;99.90
19799;DHT22;10059;59.850;10.454;2023-01-15T14:38:04;2.40;99.90
19799;DHT22;10059;59.850;10.454;2023-01-15T14:40:34;2.30;99.90
19799;DHT22;10059;59.850;10.454;2023-01-15T14:43:07;2.30;99.90
19799;DHT22;10059;59.850;10.454;2023-01-15T14:45:38;2.40;99.90
19799;DHT22;10059;59.850;10.454;2023-01-15T14:48:17;2.50;99.90
19799;DHT22;10059;59.850;10.454;2023-01-15T14:50:45;2.40;99.90
19799;DHT22;10059;59.850;10.454;2023-01-15T14:53:35;2.50;99.90
19799;DHT22;10059;59.850;10.454;2023-01-15T14:56:12;2.50;99.90
19799;DHT22;10059;59.850;10.454;2023-01-15T14:58:45;2.40;99.90
19799;DHT22;10059;59.850;10.454;2023-01-15T15:01:22;2.40;99.90
19799;DHT22;10059;59.850;10.454;2023-01-15T15:03:55;2.40;99.90
19799;DHT22;10059;59.850;10.454;2023-01-15T15:06:24;2.40;99.90
19799;DHT22;10059;59.850;10.454;2023-01-15T15:08:55;2.30;99.90
19799;DHT22;10059;59.850;10.454;2023-01-15T15:11:34;2.10;99.90
19799;DHT22;10059;59.850;10.454;2023-01-15T15:14:20;2.10;99.90
19799;DHT22;10059;59.850;10.454;2023-01-15T15:16:50;2.10;99.90
19799;DHT22;10059;59.850;10.454;2023-01-15T15:19:25;2.20;99.90
19799;DHT22;10059;59.850;10.454;2023-01-15T15:21:56;2.20;99.90
19799;DHT22;10059;59.850;10.454;2023-01-15T15:24:27;2.30;99.90
19799;DHT22;10059;59.850;10.454;2023-01-15T15:26:55;2.40;99.90
19799;DHT22;10059;59.850;10.454;2023-01-15T15:29:22;2.50;99.90
19799;DHT22;10059;59.850;10.454;2023-01-15T15:31:52;2.50;99.90
19799;DHT22;10059;59.850;10.454;2023-01-15T15:34:26;2.40;99.90
19799;DHT22;10059;59.850;10.454;2023-01-15T15:36:54;2.20;99.90
19799;DHT22;10059;59.850;10.454;2023-01-15T15:39:27;2.20;99.90
19799;DHT22;10059;59.850;10.454;2023-01-15T15:41:57;2.10;99.90
19799;DHT22;10059;59.850;10.454;2023-01-15T15:44:46;2.20;99.90
19799;DHT22;10059;59.850;10.454;2023-01-15T15:47:37;2.30;99.90
19799;DHT22;10059;59.850;10.454;2023-01-15T15:50:22;2.30;99.90
19799;DHT22;10059;59.850;10.454;2023-01-15T15:52:50;2.20;99.90
19799;DHT22;10059;59.850;10.454;2023-01-15T15:55:19;2.30;99.90
19799;DHT22;10059;59.850;10.454;2023-01-15T15:57:49;2.30;99.90
19799;DHT22;10059;59.850;10.454;2023-01-15T16:00:21;2.20;99.90
19799;DHT22;10059;59.850;10.454;2023-01-15T16:02:52;2.40;99.90
19799;DHT22;10059;59.850;10.454;2023-01-15T16:05:21;2.40;99.90